Weather observations for the past three days for
Slayton Municipal Airport
Metric (Imperial)
Date Time (cdt) Wind (kph) Vis. (km) Weather Sky Cond. Temperature (ºC) Relative Humidity Wind Chill (°C) Heat Index (°C) Pressure Precipitation (cm)
Air Dwpt 6 hour altimeter (cm) sea level (mb) 1 hr 3 hr 6 hr
Max. Min.
08 20:13 NW 24 G 39 16.09 Fair CLR 18.5 -3.7 22% 75.41 0.0
08 19:53 NW 26 G 39 16.09 Fair CLR 19 -3.5 22% 75.39 0.0
08 19:33 NW 35 G 48 16.09 Fair and Breezy CLR 19.7 -4.1 20% 75.36 0.0
08 19:13 NW 26 G 43 16.09 Fair CLR 20.1 -2.5 22% 75.36 0.0
08 18:53 NW 33 G 46 16.09 Fair and Breezy CLR 20.8 -1.1 24.3 20.7 23% 75.34 0.0
08 18:33 NW 33 G 46 16.09 Partly Cloudy and Breezy SCT100 21.3 -0.5 23% 75.34 0.0
08 18:13 NW 35 G 46 16.09 Partly Cloudy and Breezy SCT110 21.9 -0.8 22% 75.34 0.0
08 17:53 NW 22 G 44 16.09 Mostly Cloudy BKN110 22.7 -1 21% 75.31 0.0
08 17:33 W 30 G 44 16.09 Mostly Cloudy BKN100 22.6 -2 19% 75.31 0.0
08 17:13 W 28 G 44 16.09 Partly Cloudy SCT100 23 -1.1 20% 75.31 0.0
08 16:53 NW 31 G 41 16.09 Partly Cloudy SCT110 22.8 -1.5 20% 75.31 0.0
08 16:33 NW 39 G 52 16.09 Mostly Cloudy and Breezy BKN110 22.9 -1.1 20% 75.31 0.0
08 16:13 W 31 G 44 16.09 Mostly Cloudy BKN110 22.6 -1.8 20% 75.34 0.0
08 15:53 NW 33 G 48 16.09 Partly Cloudy and Breezy SCT100 SCT120 22.4 -1.5 20% 75.31 0.0
08 15:33 W 30 G 57 16.09 Partly Cloudy SCT110 24.1 -2.2 17% 24 75.34 0.0
08 15:13 NW 35 G 46 16.09 Partly Cloudy and Breezy SCT110 23.5 -2.3 18% 75.34 0.0
08 14:53 W 31 G 43 16.09 Partly Cloudy SCT110 23.4 -3.1 17% 75.36 0.0
08 14:33 W 24 G 41 16.09 Partly Cloudy SCT120 23.4 -2.9 17% 75.36 0.0
08 14:13 W 24 G 50 16.09 Mostly Cloudy BKN110 23.2 -3.7 16% 75.39 0.0
08 13:53 W 24 G 39 16.09 Mostly Cloudy BKN110 23.1 -3 17% 75.41 0.0
08 13:33 W 19 G 33 16.09 Mostly Cloudy BKN120 22 -4 17% 75.44 0.0
08 13:13 W 33 G 39 16.09 Mostly Cloudy and Breezy BKN120 22.2 -3.7 17% 75.46 0.0
08 12:53 W 22 G 39 16.09 Fair CLR 21.9 -3.4 22.1 9.6 18% 75.49 0.0
08 12:33 W 22 G 35 16.09 Fair CLR 21.2 -3.7 19% 75.49 0.0
08 12:13 W 19 G 30 16.09 Fair CLR 20.7 -3.4 20% 75.54 0.0
08 11:53 W 17 G 39 16.09 Fair CLR 20.3 -3.9 19% 75.57 0.0
08 11:33 W 22 G 30 16.09 Fair CLR 19.9 -4.4 19% 75.57 0.0
08 11:13 W 15 G 39 16.09 Fair CLR 19.5 -4.1 20% 75.59 0.0
08 10:53 W 26 G 35 16.09 Fair CLR 19 -4.6 20% 75.62 0.0
08 10:33 W 24 G 35 16.09 Fair CLR 18.2 -4.3 21% 75.62 0.0
08 10:13 W 20 G 30 16.09 Fair CLR 17.8 -4.5 22% 75.64 0.0
08 09:53 W 26 G 33 16.09 Fair CLR 16.9 -5.2 22% 75.64 0.0
08 09:33 W 26 G 31 16.09 Partly Cloudy SCT110 16.1 -4.6 24% 75.67 0.0
08 09:13 W 26 16.09 Mostly Cloudy SCT090 BKN110 15.6 -5.5 23% 75.67 0.0
08 08:53 SW 22 16.09 Mostly Cloudy BKN090 14.2 -5.1 26% 75.67 0.0
08 08:33 SW 24 16.09 Partly Cloudy SCT090 14 -4.7 27% 75.69 0.0
08 08:13 SW 24 16.09 Partly Cloudy SCT120 13.2 -4.1 30% 75.69 0.0
08 07:53 SW 19 16.09 Partly Cloudy SCT100 SCT120 12.2 -3.7 33% 75.69 0.0
08 07:33 SW 15 16.09 Mostly Cloudy BKN100 BKN120 10.2 -3.7 38% 75.69 0.0
08 07:13 SW 11 16.09 Mostly Cloudy BKN090 BKN120 9.7 -4.1 38% 8 75.69 0.0
08 06:53 SW 11 16.09 Mostly Cloudy BKN090 BKN120 9.3 -4.2 9.6 4.8 39% 8 75.69 0.0
08 06:33 SW 7 16.09 Partly Cloudy SCT110 7.3 -3.7 46% 6 75.69 0.0
08 06:13 SW 13 16.09 Mostly Cloudy BKN110 6.7 -5 43% 4 75.69 0.0
08 05:53 SW 15 16.09 Partly Cloudy SCT110 6.6 -6.3 40% 4 75.69 0.0
08 05:33 SW 13 16.09 Fair CLR 5.6 -6.6 41% 3 75.69 0.0
08 05:13 S 11 16.09 Fair CLR 6.4 -6.6 39% 4 75.69 0.0
08 04:53 S 11 16.09 Fair CLR 6.2 -6.5 40% 4 75.69 0.0
08 04:33 S 13 16.09 Fair CLR 6 -6.2 42% 4 75.69 0.0
08 04:13 S 13 16.09 Fair CLR 6.5 -6.2 40% 4 75.69 0.0
08 03:53 S 13 16.09 Fair CLR 7.2 -6.3 38% 5 75.72 0.0
08 03:33 S 11 16.09 Fair CLR 7.3 -6.2 38% 5 75.72 0.0
08 03:13 S 11 16.09 Fair CLR 7.1 -6.1 39% 5 75.72 0.0
08 02:53 S 9 16.09 Fair CLR 9.2 -6.7 32% 8 75.72 0.0
08 02:33 S 11 16.09 Fair CLR 9.6 -6.7 31% 8 75.74 0.0
08 02:13 S 9 16.09 Fair CLR 6.3 -5 45% 5 75.74 0.0
08 01:53 S 6 16.09 Fair CLR 7.1 -5.6 40% 75.74 0.0
08 01:33 S 9 16.09 Fair CLR 7.9 -5.5 38% 7 75.77 0.0
08 01:13 S 7 16.09 Fair CLR 8.4 -5.4 37% 8 75.77 0.0
08 00:53 Calm 16.09 Fair CLR 8.1 -5.4 16.6 6 38% 75.77 0.0
08 00:33 Calm 16.09 Fair CLR 6.3 -5.2 44% 75.79 0.0
08 00:13 Calm 16.09 Fair CLR 6.1 -4.6 47% 75.79 0.0
07 23:53 Calm 16.09 Fair CLR 7.5 -5.1 41% 75.79 0.0
07 23:33 Calm 16.09 Fair CLR 7.7 -5.3 40% 75.79 0.0
07 23:13 Calm 16.09 Fair CLR 7.2 -4.8 43% 75.79 0.0
07 22:53 Calm 16.09 Fair CLR 7.8 -5.2 40% 75.79 0.0
07 22:33 N 6 16.09 Fair CLR 7.5 -5 41% 75.79 0.0
07 22:13 Calm 16.09 Fair CLR 8.9 -4.8 38% 75.79 0.0
07 21:53 Calm 16.09 Fair CLR 10 -5.3 34% 75.79 0.0
07 21:33 Calm 16.09 Fair CLR 10.4 -5.6 32% 75.79 0.0
07 21:13 W 6 16.09 Fair CLR 12 -5.9 28% 75.77 0.0
07 20:53 NW 6 16.09 Fair CLR 11.9 -5.5 29% 75.77 0.0
07 20:33 NW 9 16.09 Fair CLR 12.3 -5.2 29% 75.74 0.0
07 20:13 NW 9 16.09 Fair CLR 13.5 -5.4 27% 75.74 0.0
07 19:53 NW 15 16.09 Fair CLR 15.4 -6.2 22% 75.72 0.0
07 19:33 W 19 G 26 16.09 Fair CLR 16.1 -6.9 20% 75.72 0.0
07 19:13 W 22 16.09 Fair CLR 16.6 -7.1 19% 75.69 0.0
07 18:53 NW 13 16.09 Fair CLR 16.6 -5.7 17.5 13.8 21% 75.72 0.0
07 18:33 W 11 G 30 16.09 Fair CLR 16.9 -7.1 19% 75.72 0.0
07 18:13 W 19 16.09 Fair CLR 17.2 -6.2 20% 75.72 0.0
07 17:53 NW 11 16.09 Fair CLR 16.7 -7.1 19% 75.72 0.0
07 17:33 W 11 G 30 16.09 Fair CLR 17.1 -8.2 17% 75.74 0.0
07 17:13 NW 20 G 44 16.09 Fair CLR 17 -8.1 17% 75.72 0.0
07 16:53 NW 13 G 26 16.09 Fair CLR 17.3 -6.6 19% 75.74 0.0
07 16:33 NW 9 16.09 Fair CLR 16.8 -7.4 18% 75.74 0.0
07 16:13 W 22 G 30 16.09 Fair CLR 16.7 -6.7 20% 75.77 0.0
07 15:53 W 19 G 31 16.09 Fair CLR 16.7 -6.8 19% 75.77 0.0
07 15:33 NW 19 G 33 16.09 Fair CLR 16.5 -6.1 21% 75.79 0.0
07 15:13 NW 9 G 15 16.09 Fair CLR 15.6 -6.4 22% 75.79 0.0
07 14:53 W 20 16.09 Fair CLR 16.1 -6.2 21% 75.82 0.0
07 14:33 N 7 16.09 Fair CLR 15.6 -6.5 21% 75.82 0.0
07 14:13 W 26 G 33 16.09 Fair CLR 15.5 -5.6 23% 75.82 0.0
07 13:53 W 7 G 33 16.09 Fair CLR 15 -6 23% 75.82 0.0
07 13:33 NW 19 16.09 Fair CLR 14.2 -5.5 25% 75.84 0.0
07 13:13 N 9 G 30 16.09 Fair CLR 14 -5.9 25% 75.84 0.0
07 12:53 NE 13 16.09 Fair CLR 13.6 -5.9 13.6 2.6 26% 75.87 0.0
07 12:33 N 17 16.09 Fair CLR 13.3 -5.5 27% 75.87 0.0
07 11:53 NE 15 16.09 Fair CLR 13 -4.5 30% 75.9 0.0
07 11:33 N 15 16.09 Fair CLR 12.2 -5.5 29% 75.9 0.0
07 11:13 NE 6 16.09 Fair CLR 11.9 -6 28% 75.92 0.0
07 10:53 NE 9 16.09 Fair CLR 11.9 -5.6 29% 75.92 0.0
07 10:33 NE 11 16.09 Fair CLR 11.4 -4.8 32% 75.92 0.0
07 10:13 Calm 16.09 Fair CLR 11.1 -3.3 37% 75.92 0.0
07 09:53 E 7 16.09 Fair CLR 10.7 -3.1 38% 75.92 0.0
07 09:33 SE 11 16.09 Fair CLR 10.1 -3 40% 75.9 0.0
07 09:13 E 9 16.09 Fair CLR 9.1 -3.2 42% 8 75.92 0.0
07 08:53 SE 13 16.09 Fair CLR 8.3 -3 45% 6 75.92 0.0
07 08:33 E 11 16.09 Fair CLR 7.5 -3.6 46% 6 75.92 0.0
07 08:13 E 11 16.09 Fair CLR 6.6 -3.7 48% 5 75.92 0.0
07 07:53 E 11 16.09 Fair CLR 5.3 -4.1 51% 3 75.92 0.0
07 07:33 E 11 16.09 Fair CLR 4.7 -3.9 54% 2 75.92 0.0
07 07:13 NE 7 16.09 Fair CLR 3.3 -4.1 59% 2 75.92 0.0
07 06:53 Calm 16.09 Partly Cloudy SCT110 2.3 -4.1 5 2.2 63% 75.92 0.0
07 06:33 NE 9 16.09 Partly Cloudy SCT110 2.7 -4.6 59% 0 75.92 0.0
07 06:13 E 11 16.09 Partly Cloudy SCT110 2.3 -4.7 60% -0 75.92 0.0
07 05:53 NE 11 16.09 Fair CLR 2.8 -4.7 58% 0 75.92 0.0
07 05:33 E 13 16.09 Fair CLR 3 -4.7 57% 0 75.92 0.0
07 05:13 E 11 16.09 Partly Cloudy SCT070 SCT095 2.9 -4.5 59% 0 75.97 0.0
07 04:53 NE 11 16.09 Partly Cloudy SCT042 SCT060 SCT075 3.8 -4.7 54% 1 75.97 0.0
07 04:33 NE 7 16.09 Mostly Cloudy SCT042 SCT060 BKN070 3.4 -4 59% 2 76 0.0
07 04:13 N 11 16.09 Mostly Cloudy SCT070 BKN090 BKN120 3.5 -4.5 56% 1 76 0.0
07 03:53 E 13 16.09 Mostly Cloudy BKN090 BKN110 3.8 -4.6 55% 1 75.97 0.0
07 03:33 E 13 16.09 Fair CLR 3.2 -4.7 57% 0 75.97 0.0
07 03:13 NE 15 16.09 Fair CLR 3 -4.5 58% -0 75.97 0.0
07 02:53 NE 13 16.09 Partly Cloudy SCT080 SCT090 SCT110 3.4 -4.1 58% 0 75.97 0.0
07 02:33 NE 11 16.09 Mostly Cloudy SCT070 BKN090 BKN110 3.5 -4.5 56% 1 76 0.0
07 02:13 E 11 16.09 Partly Cloudy SCT100 4.2 -4.5 54% 2 76 0.0
07 01:53 E 13 16.09 Mostly Cloudy SCT090 BKN110 4 -4.5 54% 1 76 0.0
07 01:33 E 11 16.09 Mostly Cloudy SCT070 BKN090 BKN120 4.5 -4.4 53% 2 76.05 0.0
07 01:13 E 9 16.09 Mostly Cloudy SCT085 BKN120 4.5 -4.5 52% 3 76.05 0.0
07 00:53 E 11 16.09 Mostly Cloudy SCT085 BKN120 5 -4.5 10.6 3.3 51% 3 76.07 0.0
07 00:33 NE 7 16.09 Mostly Cloudy SCT085 BKN120 4.6 -4 54% 3 76.1 0.0
07 00:13 NE 6 16.09 Mostly Cloudy SCT075 SCT085 BKN110 4.1 -4.1 56% 76.1 0.0
06 23:53 NE 6 16.09 Mostly Cloudy BKN100 3.5 -4 58% 76.1 0.0
06 23:33 Calm 16.09 Mostly Cloudy BKN100 3.3 -4.7 56% 76.1 0.0
06 23:13 Calm 16.09 Fair CLR 4.7 -4.7 51% 76.1 0.0
06 22:53 NE 6 16.09 Fair CLR 4.9 -5 49% 76.1 0.0
06 22:33 NE 7 16.09 Fair CLR 5.4 -4.8 48% 4 76.1 0.0
06 22:13 NE 7 16.09 Partly Cloudy SCT100 5.8 -4.7 47% 5 76.12 0.0
06 21:53 NE 6 16.09 Partly Cloudy SCT095 6.4 -4.7 45% 76.12 0.0
06 21:33 NE 7 16.09 Partly Cloudy SCT095 6.7 -4.9 44% 6 76.12 0.0
06 21:13 NE 7 16.09 Partly Cloudy SCT090 7.5 -4.8 42% 6 76.1 0.0
06 20:53 NE 6 16.09 Mostly Cloudy BKN090 7.9 -5.2 39% 76.1 0.0
06 20:33 N 7 11.27 Partly Cloudy SCT090 8 -5 40% 7 76.07 0.0
06 20:13 N 9 16.09 Mostly Cloudy BKN080 9 -5.1 37% 8 76.07 0.0
06 19:53 NW 13 16.09 Partly Cloudy SCT080 9.7 -5.3 35% 8 76.1 0.0
06 19:33 NW 19 16.09 Mostly Cloudy BKN080 10.2 -5.6 33% 76.1 0.0
06 19:13 NW 15 16.09 Mostly Cloudy BKN080 10.5 -5.5 32% 76.1 0.0
06 18:53 NW 19 G 28 16.09 Mostly Cloudy SCT070 BKN080 10.5 -5.4 11.4 8.2 33% 76.12 0.0
06 18:33 NW 11 G 31 16.09 Mostly Cloudy BKN080 10.9 -5.3 32% 76.12 0.0
06 18:13 NW 19 16.09 Overcast SCT070 OVC080 10.9 -5.5 31% 76.12 0.0
06 17:53 NW 22 G 31 16.09 Overcast OVC070 10.5 -5.5 32% 76.12 0.0
06 17:33 NW 20 G 28 16.09 Overcast OVC080 10.4 -5.4 33% 76.15 0.0
06 17:13 W 28 G 39 16.09 Mostly Cloudy BKN075 10.9 -5.6 31% 76.15 0.0
06 16:53 W 19 G 37 16.09 Mostly Cloudy BKN070 11 -5.8 31% 76.17 0.0
06 16:33 NW 30 G 37 16.09 Overcast OVC070 10.7 -5.7 31% 76.17 0.0
06 16:13 NW 30 G 39 16.09 Overcast SCT070 OVC080 10.7 -5.6 32% 76.17 0.0
06 15:53 NW 24 G 39 16.09 Overcast OVC070 10.4 -5.5 33% 76.2 0.0
06 15:33 W 17 16.09 Overcast OVC060 10.2 -5.8 32% 76.23 0.0
06 15:13 NW 19 G 31 16.09 Overcast OVC060 10.1 -5.1 34% 76.23 0.0
06 14:53 W 28 G 37 16.09 Mostly Cloudy BKN060 BKN070 9.8 -5 35% 7 76.25 0.0
06 14:33 NW 31 G 37 16.09 Mostly Cloudy BKN060 9.9 -5.6 33% 7 76.25 0.0
06 14:13 W 19 G 46 16.09 Overcast OVC060 9.3 -5.7 34% 7 76.25 0.0
06 13:53 NW 15 G 35 16.09 Mostly Cloudy BKN060 9.6 -5.5 34% 8 76.28 0.0
06 13:33 NW 30 G 39 16.09 Overcast OVC060 8.6 -5.6 36% 5 76.28 0.0
06 13:13 NW 28 G 41 16.09 Overcast OVC050 8.7 -5 38% 5 76.3 0.0
06 12:53 NW 30 G 43 16.09 Overcast OVC050 8.2 -5.2 8.2 3 39% 5 76.3 0.0
06 12:33 NW 30 G 37 16.09 Overcast OVC050 7.4 -5.6 40% 4 76.3 0.0
06 12:13 NW 24 G 35 16.09 Overcast OVC050 7.1 -5.8 40% 4 76.33 0.0
06 11:53 NW 30 G 39 16.09 Overcast OVC050 6.8 -5.7 41% 3 76.33 0.0
06 11:33 NW 26 G 31 16.09 Overcast OVC060 6.2 -5.5 43% 2 76.35 0.0
06 11:13 W 26 G 37 16.09 Overcast OVC060 6.2 -5.3 44% 2 76.35 0.0
06 10:53 NW 22 G 37 16.09 Overcast SCT048 OVC060 6 -5.3 45% 2 76.35 0.0
06 10:33 NW 28 G 39 16.09 Overcast SCT048 OVC060 5.9 -5.4 44% 2 76.35 0.0
06 10:13 W 22 G 35 16.09 Overcast SCT048 OVC060 5.5 -5.1 47% 2 76.35 0.0
06 09:53 NW 22 16.09 Overcast SCT044 OVC060 5.2 -5.2 47% 1 76.35 0.0
06 09:33 W 15 G 28 16.09 Overcast OVC060 4.9 -5.4 48% 2 76.35 0.0
06 09:13 W 19 16.09 Overcast OVC060 4.5 -5 51% 1 76.35 0.0
06 08:53 NW 17 16.09 Overcast OVC060 4.4 -4.3 54% 1 76.35 0.0
06 08:33 W 15 16.09 Overcast OVC060 4 -4.6 54% 1 76.35 0.0
06 08:13 NW 13 16.09 Overcast OVC070 3.7 -3.8 58% 1 76.33 0.0
06 07:53 NW 17 16.09 Overcast OVC070 3.6 -3.6 60% 0 76.33 0.0
06 07:33 W 11 16.09 Overcast OVC070 3.3 -3.3 62% 1 76.3 0.0
06 07:13 NW 9 16.09 Overcast OVC060 3 -3.2 64% 1 76.3 0.0
06 06:53 W 9 16.09 Overcast OVC060 3 -3.4 3 0 63% 1 76.28 0.0
06 06:33 W 9 16.09 Overcast OVC060 2.6 -3.1 66% 0 76.28 0.0
06 06:13 W 6 16.09 Overcast OVC060 2.6 -3.2 66% 76.23 0.0
06 05:53 W 7 16.09 Overcast OVC060 2.6 -3.3 65% 1 76.23 0.0
06 05:33 W 6 16.09 Overcast OVC060 2.5 -3.2 66% 76.23 0.0
06 05:13 NW 7 16.09 Overcast OVC060 2.5 -2.9 68% 1 76.2 0.0
06 04:53 NW 7 16.09 Overcast OVC060 3 -3.6 62% 1 76.2 0.0
06 04:33 NW 7 16.09 Overcast OVC060 2.6 -3 67% 1 76.2 0.0
06 04:13 W 6 16.09 Overcast OVC060 2.7 -3.2 65% 76.23 0.0
06 03:53 NW 6 16.09 Overcast OVC060 2.9 -3.7 62% 76.2 0.0
06 03:33 N 7 16.09 Overcast OVC060 2.7 -3.7 63% 1 76.17 0.0
06 03:13 NW 7 16.09 Overcast SCT055 OVC070 2.6 -3.2 66% 1 76.17 0.0
06 02:53 NW 9 16.09 Overcast OVC070 1.6 -3.2 71% -1 76.17 0.0
06 02:33 NW 9 16.09 Overcast OVC070 1.8 -3.6 68% -1 76.17 0.0
06 02:13 NW 6 16.09 Overcast OVC070 2.1 -3.5 67% 76.17 0.0
06 01:53 NW 7 16.09 Overcast SCT060 OVC070 1.4 -3.7 69% -1 76.17 0.0
06 01:33 NW 9 16.09 Overcast OVC070 1 -4.4 68% -2 76.17 0.0
06 01:13 W 9 16.09 Partly Cloudy SCT070 0.1 -5.2 68% -3 76.17 0.0
06 00:53 NW 9 16.09 Partly Cloudy SCT070 0 -5.5 8.6 0 67% -3 76.15 0.0
06 00:33 NW 9 16.09 Mostly Cloudy BKN075 BKN080 0.4 -5.2 66% -2 76.15 0.0
06 00:13 W 6 16.09 Mostly Cloudy BKN075 0.6 -5.6 64% 76.15 0.0
05 23:53 W 7 16.09 Partly Cloudy SCT075 1 -5.2 64% -1 76.15 0.0
05 23:33 W 9 16.09 Partly Cloudy SCT050 SCT075 2 -5 60% -0 76.17 0.0
05 23:13 W 7 16.09 Partly Cloudy SCT050 SCT065 1 -5.7 61% -1 76.17 0.0
05 22:53 NW 7 16.09 Fair CLR 1.8 -5.7 58% -0 76.15 0.0
05 22:33 NW 7 16.09 Fair CLR 2.1 -5.6 57% 0 76.12 0.0
05 22:13 NW 9 16.09 Partly Cloudy SCT070 3.1 -5.5 54% 1 76.1 0.0
05 21:53 NW 7 16.09 Mostly Cloudy BKN070 3.9 -5.4 51% 2 76.1 0.0
05 21:33 NW 7 16.09 Partly Cloudy SCT070 4.5 -5.3 49% 3 76.07 0.0
05 21:13 NW 9 16.09 Partly Cloudy SCT075 5 -5.6 47% 3 76.05 0.0
05 20:53 NW 11 16.09 Partly Cloudy SCT075 5.9 -5.8 43% 4 76.05 0.0
05 20:33 NW 17 G 28 16.09 Fair CLR 6.5 -6.3 40% 4 76.02 0.0
Date Time (cdt) Wind (kph) Vis. (km) Weather Sky Cond. Air Dwpt Max. Min. Relative Humidity Wind Chill (°C) Heat Index (°C) altimeter (cm) sea level (mb) 1 hr 3 hr 6 hr
6 hour
Temperature (ºC) Pressure Precipitation (cm)